Главная страница
METAR-TAF:

METAR-TAF

Аэропорты :

Johnstown, Пенсильвания, США

широта: 40-18-58N, долгота: 078-50-02W, высота над уровнем моря: 696 м

Текущие метеонаблюдения

Эта сводка был подготовлена 25 минут назад, в 23:54 UTC
Ветер 7 Узел от западно-северо-западный
Температура 19°C
Влажность 64%
Давление 1021 hPa
Видимость: 16.1 км
ясное небо

METAR: KJST 232354Z AUTO 29007KT 10SM CLR 19/12 A3016 RMK AO2 SLP205 T01890117 10211 20172 51005

Время: 20:19 (00:19 UTC)

Прогноз

Эта сводка был подготовлена 30 минут назад, в 23:49 UTC
Прогноз действительный с 24-го 00 UTC до 24-го 24 UTC
Ветер 6 Узел от северо-западный
Видимость: 10 км
ясное небо
С 24-го 0900 UTC
Ветер 3 Узел переменных направлений
Видимость: 10 км
ясное небо
С 24-го 1330 UTC
Ветер 6 Узел от северный
Видимость: 10 км
ясное небо

TAF: KJST 232349Z 2400/2424 31006KT P6SM SKC FM240900 VRB03KT P6SM SKC FM241330 36006KT P6SM SKC

Метеонаблюдения и прогнозы для более 4000 аэропортов (сводки METAR и TAF).

Имеющиеся станции представлены на карте желтыми и красными точками.

Чтобы увидеть название станции, наведите на нее мышь.

Затем щелкните, чтобы увидеть метеонаблюдения и метеопрогнозы.

Управление картой: чтобы увеличить масштаб, щелкните зеленые кнопки с черным крестиком; чтобы уменьшить масштаб, щелкните зеленую кнопку с тире; для просмотра соседних карт щелкайте зеленые стрелки.


METAR-TAF: